Huvudsida
METAR-TAF:

METAR-TAF

Flygplatser :

Åre Östersund Airport

Östersund-Frösön, Sverige

latitud: 63-11N, longitud: 014-30E, höjd: 376 m

Aktuellt väderrapport

Denna rapport gjordes för 10 minuter sedan, klockan 06:20 UTC
Vind 9 kt från nordväst
Temperatur 9°C
Fuktighet 71%
Tryck 1005 hPa
Sikt 10 km eller mer
Brutna moln på en höjd av 3200 ft

METAR: ESNZ 210620Z 31009KT 9999 BKN032 09/04 Q1005

Tid: 08:30 (06:30 UTC)

Väderprognos

Denna rapport gjordes för 1 timme och 0 minuter sedan, klockan 05:30 UTC
Prognos gäller från 21 kl. 06 UTC till 21 kl. 15 UTC
Vind 12 kt från nordväst
Sikt 10 km eller mer
Brutna moln på en höjd av 3000 ft

TAF: ESNZ 210530Z 2106/2115 32012KT 9999 BKN030

Aktuella väderrapporter och prognoser från 4000 flygplatser (METAR- och TAF-rapporter).

De tillgängliga stationerna syns som gula och röda prickar på kartan.

För musen över prickarna för att se namnen på stationerna.

Klicka sedan för att få väderrapporter och prognoser.

För att ändra kartan: Klicka på de gröna knapparna med ett svart kors på för att zooma in; den gröna knappen med ett streck på för att zooma ut; eller på de gröna pilarna för angränsande kartor.


METAR-TAF: